Time;durP1;ratioP1;P1;durP2;ratioP2;P2;SDS_P1;SDS_P2;PMS_P1;PMS_P2;Temp;Humidity;BMP_temperature;BMP_pressure;BME280_temperature;BME280_humidity;BME280_pressure;Samples;Min_cycle;Max_cycle;Signal;HPM_P1;HPM_P2
2021/08/11 00:01:17;;;;;;;;;;;;;;;21.27;57.59;101323.66;5047804;27;97084;-75
2021/08/11 00:03:43;;;;;;;;;;;;;;;21.21;57.78;101324.97;5055214;27;98867;-75
2021/08/11 00:06:09;;;;;;;;;;;;;;;21.33;56.70;101328.63;5050897;27;98831;-75
2021/08/11 00:08:36;;;;;;;;;;;;;;;21.15;56.88;101327.19;5034858;27;96801;-75
2021/08/11 00:11:03;;;;;;;;;;;;;;;21.24;57.66;101330.16;5050303;27;97587;-75
2021/08/11 00:13:30;;;;;;;;;;;;;;;21.33;57.90;101321.41;5056650;27;99232;-75
2021/08/11 00:15:56;;;;;;;;;;;;;;;21.38;57.64;101330.03;5062503;27;99615;-75
2021/08/11 00:18:23;;;;;;;;;;;;;;;21.37;58.45;101327.44;5057307;27;96825;-76
2021/08/11 00:20:50;;;;;;;;;;;;;;;21.39;57.61;101336.25;5058730;27;96782;-75
2021/08/11 00:23:16;;;;;;;;;;;;;;;21.33;57.68;101336.69;5056570;27;98823;-75
2021/08/11 00:25:42;;;;;;;;;;;;;;;21.48;57.48;101338.28;5057860;27;99134;-74
2021/08/11 00:28:10;;;;;;;;;;;;;;;21.44;57.69;101342.16;5058806;27;96786;-74
2021/08/11 00:30:36;;;;;;;;;;;;;;;21.45;57.27;101342.06;5059056;27;97042;-74
2021/08/11 00:33:04;;;;;;;;;;;;;;;20.62;59.49;101347.88;5057295;27;98930;-75
2021/08/11 00:35:30;;;;;;;;;;;;;;;20.98;58.53;101348.06;5057062;27;99190;-75
2021/08/11 00:37:57;;;;;;;;;;;;;;;20.92;58.31;101353.84;5058678;27;97020;-75
2021/08/11 00:40:24;;;;;;;;;;;;;;;21.19;58.07;101355.63;5057917;27;97603;-75
2021/08/11 00:42:50;;;;;;;;;;;;;;;20.76;59.04;101345.13;5057208;27;98963;-75
2021/08/11 00:45:18;;;;;;;;;;;;;;;20.85;59.13;101349.00;5056312;27;99390;-74
2021/08/11 00:47:46;;;;;;;;;;;;;;;21.05;58.63;101348.50;5066567;27;96793;-74
2021/08/11 00:50:13;;;;;;;;;;;;;;;21.03;59.12;101351.28;5062821;27;96937;-74
2021/08/11 00:52:40;;;;;;;;;;;;;;;21.15;58.69;101354.94;5061155;27;97781;-74
2021/08/11 00:55:06;;;;;;;;;;;;;;;21.25;58.56;101349.81;5045570;27;98803;-74
2021/08/11 00:57:33;;;;;;;;;;;;;;;20.99;58.97;101354.28;5054390;27;96701;-74
2021/08/11 01:00:01;;;;;;;;;;;;;;;21.14;59.49;101353.22;5063657;27;96842;-73
2021/08/11 01:02:28;;;;;;;;;;;;;;;21.04;59.48;101352.16;5065177;27;98099;-73
2021/08/11 01:04:57;;;;;;;;;;;;;;;20.84;60.04;101350.84;5055847;27;97851;-74
2021/08/11 01:07:24;;;;;;;;;;;;;;;20.96;59.74;101344.59;5053797;27;98030;-75
2021/08/11 01:09:51;;;;;;;;;;;;;;;20.95;60.51;101356.31;5042646;27;98391;-75
2021/08/11 01:12:18;;;;;;;;;;;;;;;20.73;61.11;101349.84;5044997;27;99129;-76
2021/08/11 01:14:44;;;;;;;;;;;;;;;20.90;60.61;101360.28;5051663;27;98795;-75
2021/08/11 01:17:10;;;;;;;;;;;;;;;20.49;61.44;101358.59;5058595;27;97036;-76
2021/08/11 01:19:38;;;;;;;;;;;;;;;20.91;60.67;101357.50;5052509;27;98521;-75
2021/08/11 01:22:06;;;;;;;;;;;;;;;20.96;60.40;101362.56;5056432;27;98911;-75
2021/08/11 01:24:36;;;;;;;;;;;;;;;20.81;61.12;101356.41;5056341;27;98920;-75
2021/08/11 01:27:20;;;;;;;;;;;;;;;20.86;61.14;101362.34;5057348;27;96783;-75
2021/08/11 01:29:55;;;;;;;;;;;;;;;20.96;60.22;101371.47;5045547;27;97026;-75
2021/08/11 01:32:26;;;;;;;;;;;;;;;20.64;61.10;101373.69;5045848;27;99163;-75
2021/08/11 01:34:56;;;;;;;;;;;;;;;20.69;60.99;101367.97;5047119;27;99358;-75
2021/08/11 01:37:26;;;;;;;;;;;;;;;20.52;61.64;101363.75;5058078;27;96720;-75
2021/08/11 01:39:54;;;;;;;;;;;;;;;20.20;62.35;101370.38;5052147;27;96993;-75
2021/08/11 01:42:23;;;;;;;;;;;;;;;20.36;61.87;101367.56;5054146;27;99308;-75
2021/08/11 01:44:52;;;;;;;;;;;;;;;20.46;61.49;101372.22;5056677;27;99272;-76
2021/08/11 01:47:20;;;;;;;;;;;;;;;20.35;61.83;101368.56;5055713;27;99260;-75
2021/08/11 01:49:48;;;;;;;;;;;;;;;20.33;61.74;101367.78;5057486;27;96859;-75
2021/08/11 01:52:16;;;;;;;;;;;;;;;20.17;61.33;101371.44;5055787;27;98862;-75
2021/08/11 01:54:43;;;;;;;;;;;;;;;20.28;61.52;101368.91;5052342;27;98798;-75
2021/08/11 01:57:10;;;;;;;;;;;;;;;20.48;60.70;101369.44;5057388;27;96741;-75
2021/08/11 01:59:38;;;;;;;;;;;;;;;20.36;60.73;101362.19;5054782;27;96690;-75
2021/08/11 02:02:04;;;;;;;;;;;;;;;20.47;61.12;101367.72;5057944;27;99102;-75
2021/08/11 02:04:31;;;;;;;;;;;;;;;20.39;60.34;101362.88;5056894;27;98909;-75
2021/08/11 02:06:57;;;;;;;;;;;;;;;20.42;60.77;101369.84;5061939;27;96784;-75
2021/08/11 02:09:27;;;;;;;;;;;;;;;20.70;59.71;101369.72;5080530;27;97227;-75
2021/08/11 02:11:54;;;;;;;;;;;;;;;20.55;60.32;101362.69;5063595;27;99620;-75
2021/08/11 02:14:21;;;;;;;;;;;;;;;20.64;59.99;101368.31;5057575;27;98790;-75
2021/08/11 02:16:47;;;;;;;;;;;;;;;20.49;60.54;101379.19;5058048;27;96716;-75
2021/08/11 02:19:13;;;;;;;;;;;;;;;20.69;59.42;101376.91;5056069;27;96806;-75
2021/08/11 02:21:40;;;;;;;;;;;;;;;20.65;59.88;101378.09;5055124;27;98964;-76
2021/08/11 02:24:07;;;;;;;;;;;;;;;20.46;60.03;101382.09;5055705;27;98078;-75
2021/08/11 02:26:39;;;;;;;;;;;;;;;20.40;60.31;101386.06;5057267;27;96671;-75
2021/08/11 02:29:08;;;;;;;;;;;;;;;20.55;59.87;101387.69;5054958;27;96862;-75
2021/08/11 02:31:39;;;;;;;;;;;;;;;20.58;59.22;101392.03;5054915;27;99292;-75
2021/08/11 02:34:09;;;;;;;;;;;;;;;20.50;59.43;101384.47;5054866;27;99168;-75
2021/08/11 02:36:39;;;;;;;;;;;;;;;20.25;60.68;101387.91;5056430;27;96828;-75
2021/08/11 02:39:09;;;;;;;;;;;;;;;19.88;61.40;101392.13;5056231;27;97482;-75
2021/08/11 02:41:40;;;;;;;;;;;;;;;20.31;60.45;101394.69;5055552;27;98434;-75
2021/08/11 02:44:09;;;;;;;;;;;;;;;20.31;60.54;101386.63;5053813;27;98871;-75
2021/08/11 02:46:39;;;;;;;;;;;;;;;20.37;60.35;101388.94;5052788;27;98022;-75
2021/08/11 02:49:07;;;;;;;;;;;;;;;20.46;60.09;101392.84;5041689;27;98953;-76
2021/08/11 02:51:34;;;;;;;;;;;;;;;20.39;60.09;101396.91;5040948;27;99075;-75
2021/08/11 02:54:02;;;;;;;;;;;;;;;20.42;60.06;101389.50;5038414;27;99288;-75
2021/08/11 02:56:30;;;;;;;;;;;;;;;20.26;60.84;101397.69;5051186;27;98849;-75
2021/08/11 02:58:58;;;;;;;;;;;;;;;20.03;61.38;101398.28;5035594;27;97103;-75
2021/08/11 03:01:26;;;;;;;;;;;;;;;19.86;61.64;101393.16;5053272;27;98981;-75
2021/08/11 03:03:52;;;;;;;;;;;;;;;19.83;61.59;101396.88;5050326;27;98566;-75
2021/08/11 03:06:19;;;;;;;;;;;;;;;20.05;61.50;101395.53;5055822;27;98054;-75
2021/08/11 03:08:45;;;;;;;;;;;;;;;19.83;62.12;101401.38;5056376;27;96823;-75
2021/08/11 03:11:12;;;;;;;;;;;;;;;20.13;61.64;101402.13;5054820;27;99392;-76
2021/08/11 03:13:42;;;;;;;;;;;;;;;20.11;61.30;101403.16;5044998;27;99146;-75
2021/08/11 03:16:10;;;;;;;;;;;;;;;20.06;61.56;101399.94;5056717;27;96912;-75
2021/08/11 03:18:36;;;;;;;;;;;;;;;19.52;62.68;101397.09;5053567;27;97058;-75
2021/08/11 03:21:02;;;;;;;;;;;;;;;20.05;61.69;101404.44;5052909;27;98880;-75
2021/08/11 03:23:29;;;;;;;;;;;;;;;20.16;61.33;101409.09;5054162;27;98920;-75
2021/08/11 03:25:55;;;;;;;;;;;;;;;20.09;61.04;101400.56;5056072;27;96739;-74
2021/08/11 03:28:21;;;;;;;;;;;;;;;19.92;61.20;101400.81;5055400;27;96756;-75
2021/08/11 03:30:48;;;;;;;;;;;;;;;19.81;61.73;101400.66;5051270;27;99079;-74
2021/08/11 03:33:16;;;;;;;;;;;;;;;19.44;62.24;101402.03;5056428;27;99102;-75
2021/08/11 03:35:43;;;;;;;;;;;;;;;19.72;61.93;101395.84;5055638;27;99591;-74
2021/08/11 03:38:09;;;;;;;;;;;;;;;19.83;61.37;101393.34;5058740;27;97081;-75
2021/08/11 03:40:35;;;;;;;;;;;;;;;19.73;61.56;101394.91;5053873;27;98817;-75
2021/08/11 03:43:02;;;;;;;;;;;;;;;19.66;62.09;101396.25;5055044;27;98714;-75
2021/08/11 03:45:28;;;;;;;;;;;;;;;19.28;62.93;101391.44;5057045;27;97030;-75
2021/08/11 03:47:55;;;;;;;;;;;;;;;19.73;61.92;101394.91;5059806;27;97190;-74
2021/08/11 03:50:25;;;;;;;;;;;;;;;19.99;61.28;101396.78;5054391;27;98988;-74
2021/08/11 03:52:52;;;;;;;;;;;;;;;19.68;62.12;101402.38;5058089;27;99234;-75
2021/08/11 03:55:18;;;;;;;;;;;;;;;19.58;62.36;101403.91;5057966;27;97350;-74
2021/08/11 03:57:45;;;;;;;;;;;;;;;19.85;61.65;101407.53;5059755;27;96836;-75
2021/08/11 04:00:12;;;;;;;;;;;;;;;20.00;60.97;101411.91;5058810;27;98854;-75
2021/08/11 04:02:38;;;;;;;;;;;;;;;19.43;62.68;101406.53;5058562;27;99149;-75
2021/08/11 04:05:05;;;;;;;;;;;;;;;19.64;61.68;101408.88;5060356;27;96979;-76
2021/08/11 04:07:32;;;;;;;;;;;;;;;19.71;61.91;101412.91;5059670;27;98612;-75
2021/08/11 04:09:58;;;;;;;;;;;;;;;20.01;61.12;101412.78;5058991;27;99302;-76
2021/08/11 04:12:25;;;;;;;;;;;;;;;19.20;63.15;101415.13;5056338;27;99332;-75
2021/08/11 04:14:51;;;;;;;;;;;;;;;19.11;63.55;101421.03;5057340;27;96755;-75
2021/08/11 04:17:17;;;;;;;;;;;;;;;19.69;62.02;101409.47;5051782;27;97465;-75
2021/08/11 04:19:44;;;;;;;;;;;;;;;20.08;60.42;101412.28;5049143;27;99446;-75
2021/08/11 04:22:10;;;;;;;;;;;;;;;20.02;60.54;101420.72;5069900;27;98830;-74
2021/08/11 04:24:37;;;;;;;;;;;;;;;20.12;60.69;101421.84;5069574;27;97109;-74
2021/08/11 04:27:04;;;;;;;;;;;;;;;20.20;59.75;101419.53;5067056;27;97162;-75
2021/08/11 04:29:30;;;;;;;;;;;;;;;20.26;59.69;101429.00;5061908;27;97805;-74
2021/08/11 04:31:56;;;;;;;;;;;;;;;20.17;59.70;101427.78;5063737;27;98853;-75
2021/08/11 04:34:23;;;;;;;;;;;;;;;19.65;61.56;101432.03;5061287;27;97076;-75
2021/08/11 04:36:49;;;;;;;;;;;;;;;19.86;61.14;101438.75;5058542;27;98595;-74
2021/08/11 04:39:15;;;;;;;;;;;;;;;19.58;61.58;101434.25;5059344;27;98913;-74
2021/08/11 04:41:43;;;;;;;;;;;;;;;19.34;62.08;101435.72;5057960;27;97458;-74
2021/08/11 04:44:11;;;;;;;;;;;;;;;19.68;61.34;101442.59;5047618;27;99000;-76
2021/08/11 04:46:37;;;;;;;;;;;;;;;19.75;61.14;101443.94;5057446;27;97283;-74
2021/08/11 04:49:03;;;;;;;;;;;;;;;20.15;60.01;101448.47;5050221;27;99213;-74
2021/08/11 04:51:30;;;;;;;;;;;;;;;19.73;nan;101440.47;5057127;27;99012;-74
2021/08/11 04:53:56;;;;;;;;;;;;;;;19.64;61.41;101446.41;5056986;27;96922;-75
2021/08/11 04:56:22;;;;;;;;;;;;;;;20.19;60.30;101446.47;5050270;27;97312;-74
2021/08/11 04:58:50;;;;;;;;;;;;;;;19.75;61.14;101451.97;5052008;27;98844;-75
2021/08/11 05:01:16;;;;;;;;;;;;;;;20.15;60.13;101459.19;5054964;27;97631;-75
2021/08/11 05:03:42;;;;;;;;;;;;;;;20.17;60.07;101459.97;5053717;27;97033;-76
2021/08/11 05:06:09;;;;;;;;;;;;;;;20.49;59.01;101463.28;5051801;27;96808;-74
2021/08/11 05:08:35;;;;;;;;;;;;;;;20.02;60.01;101466.31;5056523;27;99297;-74
2021/08/11 05:11:02;;;;;;;;;;;;;;;20.71;58.40;101465.44;5056745;27;99115;-75
2021/08/11 05:13:28;;;;;;;;;;;;;;;20.99;57.69;101468.00;5047695;27;98238;-75
2021/08/11 05:15:56;;;;;;;;;;;;;;;20.99;57.62;101468.00;5058291;27;97013;-74
2021/08/11 05:18:22;;;;;;;;;;;;;;;20.95;58.00;101476.34;5055697;27;97607;-74
2021/08/11 05:20:48;;;;;;;;;;;;;;;20.68;57.74;101474.53;5056108;27;98005;-74
2021/08/11 05:23:14;;;;;;;;;;;;;;;20.79;58.30;101484.59;5056355;27;97082;-75
2021/08/11 05:25:41;;;;;;;;;;;;;;;20.68;58.63;101484.41;5057058;27;97642;-75
2021/08/11 05:28:08;;;;;;;;;;;;;;;21.29;56.89;101485.69;5065486;27;97910;-74
2021/08/11 05:30:34;;;;;;;;;;;;;;;21.55;55.98;101478.53;5052981;27;97544;-75
2021/08/11 05:33:02;;;;;;;;;;;;;;;21.13;56.83;101485.00;5048366;27;97352;-75
2021/08/11 05:35:28;;;;;;;;;;;;;;;21.19;56.92;101480.13;5046741;27;97443;-75
2021/08/11 05:37:54;;;;;;;;;;;;;;;21.16;57.10;101474.94;5057344;27;98901;-75
2021/08/11 05:40:21;;;;;;;;;;;;;;;21.15;57.38;101483.91;5050684;27;98746;-75
2021/08/11 05:42:47;;;;;;;;;;;;;;;22.63;53.46;101494.00;5054070;27;97277;-75
2021/08/11 05:45:13;;;;;;;;;;;;;;;23.52;50.38;101493.53;5047194;27;96814;-74
2021/08/11 05:47:40;;;;;;;;;;;;;;;22.76;51.71;101488.59;5056829;27;98307;-75
2021/08/11 05:50:08;;;;;;;;;;;;;;;22.26;53.32;101497.66;5054847;27;98782;-74
2021/08/11 05:52:35;;;;;;;;;;;;;;;22.11;53.80;101498.78;5057244;27;97223;-75
2021/08/11 05:55:01;;;;;;;;;;;;;;;21.94;54.43;101491.00;5055661;27;96880;-74
2021/08/11 05:57:27;;;;;;;;;;;;;;;21.84;54.49;101502.44;5053549;27;99469;-74
2021/08/11 05:59:53;;;;;;;;;;;;;;;22.18;54.22;101502.75;5054583;27;98795;-75
2021/08/11 06:02:21;;;;;;;;;;;;;;;22.17;54.05;101506.41;5056293;27;96875;-75
2021/08/11 06:04:47;;;;;;;;;;;;;;;22.15;53.88;101498.44;5055770;27;96955;-75
2021/08/11 06:07:15;;;;;;;;;;;;;;;22.17;54.18;101512.66;5048193;27;98957;-75
2021/08/11 06:09:41;;;;;;;;;;;;;;;22.57;53.27;101510.63;5051201;27;99188;-76
2021/08/11 06:12:08;;;;;;;;;;;;;;;22.57;53.30;101510.63;5060559;27;96984;-74
2021/08/11 06:14:34;;;;;;;;;;;;;;;22.42;53.44;101506.34;5074111;27;97168;-74
2021/08/11 06:17:00;;;;;;;;;;;;;;;22.31;53.85;101511.66;5072810;27;97622;-75
2021/08/11 06:19:27;;;;;;;;;;;;;;;22.07;54.35;101521.47;5049525;27;99067;-75
2021/08/11 06:21:53;;;;;;;;;;;;;;;22.86;52.31;101515.69;5056665;27;96741;-74
2021/08/11 06:24:21;;;;;;;;;;;;;;;22.88;52.27;101520.00;5051610;27;97287;-75
2021/08/11 06:26:47;;;;;;;;;;;;;;;22.50;52.95;101512.03;5052710;27;99331;-76
2021/08/11 06:29:13;;;;;;;;;;;;;;;22.60;52.73;101517.59;5049483;27;98743;-74
2021/08/11 06:31:41;;;;;;;;;;;;;;;22.73;52.53;101513.03;5055249;27;97268;-74
2021/08/11 06:34:07;;;;;;;;;;;;;;;22.82;52.53;101519.59;5052854;27;97417;-74
2021/08/11 06:36:34;;;;;;;;;;;;;;;22.80;52.87;101524.22;5055636;27;97588;-75
2021/08/11 06:39:00;;;;;;;;;;;;;;;23.52;51.17;101527.75;5054854;27;98756;-75
2021/08/11 06:41:28;;;;;;;;;;;;;;;23.92;49.88;101528.19;5051030;27;96932;-76
2021/08/11 06:43:54;;;;;;;;;;;;;;;23.25;50.39;101528.84;5045786;27;98048;-75
2021/08/11 06:46:20;;;;;;;;;;;;;;;23.68;49.61;101537.25;5038749;27;98773;-75
2021/08/11 06:48:47;;;;;;;;;;;;;;;23.77;49.22;101536.50;5038572;27;99007;-75
2021/08/11 06:51:13;;;;;;;;;;;;;;;24.08;48.74;101528.69;5040054;27;98806;-74
2021/08/11 06:53:39;;;;;;;;;;;;;;;24.14;49.01;101534.47;5037195;27;97567;-74
2021/08/11 06:56:07;;;;;;;;;;;;;;;23.53;50.61;101535.72;5045615;27;99039;-74
2021/08/11 06:58:36;;;;;;;;;;;;;;;23.16;51.00;101540.34;5054518;27;99662;-74
2021/08/11 07:01:03;;;;;;;;;;;;;;;24.11;49.06;101534.69;5050381;27;97148;-74
2021/08/11 07:03:29;;;;;;;;;;;;;;;24.43;48.12;101524.03;5048989;27;97612;-77
2021/08/11 07:05:55;;;;;;;;;;;;;;;24.39;47.94;101535.22;5049454;27;99059;-75
2021/08/11 07:08:22;;;;;;;;;;;;;;;24.15;48.39;101530.78;5049362;27;98828;-75
2021/08/11 07:10:49;;;;;;;;;;;;;;;24.05;48.91;101529.78;5050934;27;97134;-74
2021/08/11 07:13:15;;;;;;;;;;;;;;;24.31;48.57;101532.28;5048999;27;98753;-76
2021/08/11 07:15:43;;;;;;;;;;;;;;;24.17;48.87;101534.22;5050937;27;98966;-74
2021/08/11 07:18:12;;;;;;;;;;;;;;;23.11;51.12;101534.41;5051306;27;99013;-75
2021/08/11 07:20:38;;;;;;;;;;;;;;;23.18;51.01;101538.38;5053459;27;98260;-75
2021/08/11 07:23:04;;;;;;;;;;;;;;;23.43;51.14;101537.41;5051644;27;96964;-75
2021/08/11 07:25:31;;;;;;;;;;;;;;;24.11;48.70;101540.09;5052913;27;99777;-75
2021/08/11 07:27:57;;;;;;;;;;;;;;;23.47;48.72;101548.78;5054357;27;99506;-76
2021/08/11 07:30:23;;;;;;;;;;;;;;;23.72;48.75;101548.63;5054058;27;97089;-75
2021/08/11 07:32:51;;;;;;;;;;;;;;;24.03;47.19;101547.94;5054160;27;97010;-75
2021/08/11 07:35:17;;;;;;;;;;;;;;;24.69;46.15;101551.63;5053267;27;98824;-75
2021/08/11 07:37:45;;;;;;;;;;;;;;;25.07;45.61;101558.47;5054461;27;98811;-74
2021/08/11 07:40:13;;;;;;;;;;;;;;;24.86;46.37;101561.91;5054360;27;96877;-76
2021/08/11 07:42:39;;;;;;;;;;;;;;;24.58;46.85;101565.16;5053356;27;98643;-74
2021/08/11 07:45:06;;;;;;;;;;;;;;;24.07;47.98;101556.69;5053566;27;99344;-75
2021/08/11 07:47:32;;;;;;;;;;;;;;;24.11;47.80;101564.41;5054304;27;99154;-77
2021/08/11 07:50:00;;;;;;;;;;;;;;;24.02;47.70;101556.19;5054859;27;96987;-75
2021/08/11 07:52:26;;;;;;;;;;;;;;;24.11;47.64;101561.69;5052775;27;96939;-75
2021/08/11 07:54:52;;;;;;;;;;;;;;;24.73;46.70;101566.63;5055775;27;98842;-76
2021/08/11 07:57:18;;;;;;;;;;;;;;;24.03;47.52;101572.25;5053594;27;98689;-74
2021/08/11 07:59:45;;;;;;;;;;;;;;;24.73;45.81;101573.88;5060046;27;96724;-74
2021/08/11 08:02:13;;;;;;;;;;;;;;;24.03;47.73;101574.94;5044120;27;97607;-75
2021/08/11 08:04:40;;;;;;;;;;;;;;;24.63;46.75;101565.63;5053890;27;98938;-76
2021/08/11 08:07:08;;;;;;;;;;;;;;;25.42;44.68;101572.56;5055275;27;100877;-73
2021/08/11 08:09:34;;;;;;;;;;;;;;;24.44;45.54;101568.13;5054445;27;98810;-75
2021/08/11 08:12:01;;;;;;;;;;;;;;;24.29;47.03;101572.03;5054689;27;97236;-74
2021/08/11 08:14:27;;;;;;;;;;;;;;;24.62;46.55;101572.88;5051350;27;99437;-73
2021/08/11 08:16:53;;;;;;;;;;;;;;;25.60;44.28;101576.44;5052296;27;99321;-74
2021/08/11 08:19:20;;;;;;;;;;;;;;;24.35;46.52;101568.88;5051751;27;97926;-76
2021/08/11 08:21:46;;;;;;;;;;;;;;;25.09;45.60;101565.44;5056272;27;97439;-74
2021/08/11 08:24:14;;;;;;;;;;;;;;;24.42;45.54;101575.47;5052438;27;98927;-74
2021/08/11 08:26:42;;;;;;;;;;;;;;;24.73;45.35;101569.31;5055296;27;100814;-74
2021/08/11 08:29:08;;;;;;;;;;;;;;;24.46;46.16;101580.53;5048976;27;97029;-75
2021/08/11 08:31:35;;;;;;;;;;;;;;;24.85;45.71;101578.25;5053646;27;98255;-75
2021/08/11 08:34:01;;;;;;;;;;;;;;;24.26;46.62;101577.69;5049818;27;98900;-75
2021/08/11 08:36:27;;;;;;;;;;;;;;;25.15;45.27;101583.00;5052152;27;99166;-74
2021/08/11 08:38:53;;;;;;;;;;;;;;;25.69;43.67;101586.47;5049857;27;98692;-75
2021/08/11 08:41:24;;;;;;;;;;;;;;;25.22;44.08;101584.19;5051119;27;97106;-75
2021/08/11 08:43:50;;;;;;;;;;;;;;;24.79;45.93;101576.94;5055244;27;99003;-75
2021/08/11 08:46:17;;;;;;;;;;;;;;;24.82;45.57;101579.34;5050505;27;98614;-75
2021/08/11 08:48:49;;;;;;;;;;;;;;;25.58;43.81;101581.13;5051328;27;97367;-75
2021/08/11 08:51:16;;;;;;;;;;;;;;;25.38;44.11;101584.63;5050785;27;98956;-75
2021/08/11 08:53:42;;;;;;;;;;;;;;;24.95;44.72;101585.50;5049268;27;99312;-75
2021/08/11 08:56:09;;;;;;;;;;;;;;;24.32;46.03;101588.00;5050226;27;98174;-75
2021/08/11 08:58:38;;;;;;;;;;;;;;;24.93;44.78;101586.63;5048103;27;97432;-75
2021/08/11 09:01:04;;;;;;;;;;;;;;;25.26;42.99;101589.25;5050692;27;97238;-75
2021/08/11 09:03:30;;;;;;;;;;;;;;;25.27;42.82;101590.09;5049947;27;98994;-75
2021/08/11 09:05:56;;;;;;;;;;;;;;;24.52;44.48;101592.69;5050229;27;97683;-74
2021/08/11 09:08:23;;;;;;;;;;;;;;;24.86;44.69;101588.09;5057894;27;98184;-74
2021/08/11 09:10:49;;;;;;;;;;;;;;;24.32;45.58;101586.16;5056761;27;96919;-75
2021/08/11 09:13:18;;;;;;;;;;;;;;;25.24;43.83;101590.34;5051109;27;99233;-74
2021/08/11 09:15:47;;;;;;;;;;;;;;;25.64;42.32;101588.72;5050101;27;99205;-74
2021/08/11 09:18:14;;;;;;;;;;;;;;;25.64;42.30;101599.56;5050199;27;98611;-74
2021/08/11 09:20:41;;;;;;;;;;;;;;;26.00;42.42;101597.34;5047821;27;98781;-75
2021/08/11 09:23:08;;;;;;;;;;;;;;;25.99;42.65;101604.63;5044719;27;99049;-73
2021/08/11 09:25:34;;;;;;;;;;;;;;;24.02;46.68;101591.28;5050462;27;98802;-75
2021/08/11 09:28:02;;;;;;;;;;;;;;;24.40;46.38;101593.66;5051148;27;97501;-74
2021/08/11 09:30:32;;;;;;;;;;;;;;;24.21;45.31;101589.75;5055440;27;97811;-75
2021/08/11 09:33:01;;;;;;;;;;;;;;;24.18;45.26;101595.34;5047828;27;99291;-76
2021/08/11 09:35:28;;;;;;;;;;;;;;;24.63;44.21;101589.97;5055919;27;98849;-74
2021/08/11 09:37:55;;;;;;;;;;;;;;;25.55;41.96;101602.13;5053950;27;97430;-74
2021/08/11 09:40:23;;;;;;;;;;;;;;;25.58;42.49;101596.50;5052400;27;99091;-73
2021/08/11 09:42:52;;;;;;;;;;;;;;;25.77;41.45;101593.94;5052448;27;98817;-74
2021/08/11 09:45:19;;;;;;;;;;;;;;;26.16;37.75;101600.47;5055479;27;98908;-75
2021/08/11 09:48:03;;;;;;;;;;;;;;;25.67;38.08;101604.69;5051284;27;97253;-74
2021/08/11 09:50:38;;;;;;;;;;;;;;;24.69;40.24;101599.41;5052401;27;97998;-75
2021/08/11 09:53:04;;;;;;;;;;;;;;;25.72;37.84;101602.47;5055310;27;99324;-74
2021/08/11 09:55:51;;;;;;;;;;;;;;;26.57;36.77;101605.81;5054864;27;98747;-76
2021/08/11 09:58:18;;;;;;;;;;;;;;;26.35;38.26;101600.59;5055029;27;96835;-75
2021/08/11 10:00:48;;;;;;;;;;;;;;;26.61;38.62;101597.41;5058846;27;97372;-75
2021/08/11 10:03:17;;;;;;;;;;;;;;;25.82;40.14;101609.78;5057964;27;99029;-74
2021/08/11 10:05:43;;;;;;;;;;;;;;;25.93;40.41;101609.72;5058059;27;98185;-76
2021/08/11 10:08:10;;;;;;;;;;;;;;;25.51;40.59;101612.38;5053216;27;97770;-74
2021/08/11 10:10:47;;;;;;;;;;;;;;;25.63;39.87;101614.06;5049844;27;97131;-76
2021/08/11 10:13:16;;;;;;;;;;;;;;;25.90;39.14;101609.97;5047032;27;99917;-77
2021/08/11 10:15:43;;;;;;;;;;;;;;;25.67;39.54;101618.22;5051884;27;98828;-76
2021/08/11 10:18:11;;;;;;;;;;;;;;;25.85;38.70;101601.41;5050796;27;97198;-75
2021/08/11 10:20:39;;;;;;;;;;;;;;;26.33;38.16;101596.28;5051418;27;97244;-75
2021/08/11 10:23:06;;;;;;;;;;;;;;;26.53;36.52;101598.94;5054638;27;98977;-75
2021/08/11 10:25:32;;;;;;;;;;;;;;;26.59;36.09;101602.94;5046605;27;98075;-75
2021/08/11 10:27:59;;;;;;;;;;;;;;;26.57;35.94;101602.25;5053537;27;97238;-74
2021/08/11 10:30:25;;;;;;;;;;;;;;;26.89;34.97;101593.97;5054297;27;97443;-75
2021/08/11 10:32:51;;;;;;;;;;;;;;;27.16;35.31;101605.00;5054866;27;99344;-74
2021/08/11 10:35:18;;;;;;;;;;;;;;;26.77;35.23;101605.88;5052918;27;98906;-75
2021/08/11 10:37:45;;;;;;;;;;;;;;;25.92;38.53;101617.00;5056690;27;96780;-76
2021/08/11 10:40:12;;;;;;;;;;;;;;;25.61;39.42;101617.88;5053127;27;97139;-75
2021/08/11 10:42:38;;;;;;;;;;;;;;;25.46;40.32;101622.75;5052850;27;99193;-75
2021/08/11 10:45:05;;;;;;;;;;;;;;;24.65;41.75;101615.03;5051326;27;99393;-75
2021/08/11 10:47:32;;;;;;;;;;;;;;;24.13;42.71;101618.28;5055390;27;97371;-74
2021/08/11 10:49:59;;;;;;;;;;;;;;;24.62;40.54;101624.22;5056720;27;97487;-75
2021/08/11 10:52:26;;;;;;;;;;;;;;;25.23;38.56;101618.38;5051913;27;98831;-73
2021/08/11 10:54:54;;;;;;;;;;;;;;;25.19;37.85;101619.63;5050822;27;98962;-74
2021/08/11 10:57:40;;;;;;;;;;;;;;;26.42;35.93;101615.31;5050990;27;97953;-74
2021/08/11 11:00:08;;;;;;;;;;;;;;;26.15;37.00;101613.13;5050628;27;98794;-75
2021/08/11 11:02:44;;;;;;;;;;;;;;;24.85;40.29;101622.38;5051875;27;98937;-75
2021/08/11 11:05:33;;;;;;;;;;;;;;;25.45;39.25;101625.56;5047382;27;104774;-75
2021/08/11 11:08:23;;;;;;;;;;;;;;;26.66;37.42;101614.09;5052707;27;97109;-74
2021/08/11 11:10:51;;;;;;;;;;;;;;;26.70;36.45;101623.69;5046195;27;97671;-75
2021/08/11 11:13:36;;;;;;;;;;;;;;;26.30;36.12;101629.06;5050562;27;98591;-75
2021/08/11 11:16:02;;;;;;;;;;;;;;;25.93;36.82;101626.81;5048601;27;98339;-75
2021/08/11 11:18:29;;;;;;;;;;;;;;;25.47;37.58;101629.00;5053485;27;97395;-76
2021/08/11 11:21:11;;;;;;;;;;;;;;;25.36;37.50;101632.59;5051518;27;98831;-76
2021/08/11 11:23:38;;;;;;;;;;;;;;;25.55;37.77;101634.59;5051173;27;99061;-75
2021/08/11 11:26:06;;;;;;;;;;;;;;;25.26;37.83;101631.66;5051813;27;98801;-76
2021/08/11 11:28:52;;;;;;;;;;;;;;;25.17;37.99;101635.13;5050186;27;97260;-74
2021/08/11 11:31:31;;;;;;;;;;;;;;;24.79;38.44;101628.28;5052212;27;97267;-75
2021/08/11 11:34:12;;;;;;;;;;;;;;;25.48;37.43;101622.59;5050870;27;99363;-76
2021/08/11 11:36:39;;;;;;;;;;;;;;;25.11;37.83;101622.09;5050052;27;99579;-75
2021/08/11 11:39:06;;;;;;;;;;;;;;;25.09;38.04;101619.50;5052697;27;96918;-74
2021/08/11 11:41:34;;;;;;;;;;;;;;;26.17;36.06;101626.56;5050086;27;98856;-75
2021/08/11 11:44:15;;;;;;;;;;;;;;;25.85;35.81;101623.06;5048201;27;98103;-74
2021/08/11 11:46:46;;;;;;;;;;;;;;;25.74;36.89;101622.13;5052753;27;99287;-74
2021/08/11 11:49:15;;;;;;;;;;;;;;;25.65;37.17;101630.19;5055501;27;96755;-73
2021/08/11 11:51:42;;;;;;;;;;;;;;;26.06;35.88;101618.47;5053030;27;97490;-73
2021/08/11 11:54:09;;;;;;;;;;;;;;;26.14;35.28;101615.97;5054446;27;98910;-74
2021/08/11 11:56:37;;;;;;;;;;;;;;;26.59;35.16;101611.09;5054076;27;98820;-73
2021/08/11 11:59:05;;;;;;;;;;;;;;;27.25;34.72;101615.00;5054355;27;97415;-74
2021/08/11 12:01:35;;;;;;;;;;;;;;;27.25;34.42;101616.84;5052519;27;97267;-74
2021/08/11 12:04:02;;;;;;;;;;;;;;;25.60;36.58;101614.31;5054625;27;99035;-75
2021/08/11 12:06:36;;;;;;;;;;;;;;;25.71;36.35;101617.00;5055210;27;98835;-75
2021/08/11 12:09:02;;;;;;;;;;;;;;;26.05;36.01;101614.94;5052565;27;97545;-74
2021/08/11 12:11:29;;;;;;;;;;;;;;;26.17;36.16;101613.88;5046377;27;97136;-75
2021/08/11 12:14:02;;;;;;;;;;;;;;;26.07;35.76;101617.50;5053076;27;100846;-74
2021/08/11 12:16:34;;;;;;;;;;;;;;;27.05;34.19;101610.53;5049019;27;98883;-76
2021/08/11 12:19:09;;;;;;;;;;;;;;;27.58;33.18;101605.59;5055976;27;96874;-76
2021/08/11 12:21:35;;;;;;;;;;;;;;;27.54;33.18;101608.75;5056975;27;96936;-75
2021/08/11 12:24:02;;;;;;;;;;;;;;;27.19;33.89;101607.41;5053001;27;98916;-75
2021/08/11 12:26:29;;;;;;;;;;;;;;;27.88;33.07;101610.03;5053331;27;99169;-75
2021/08/11 12:28:58;;;;;;;;;;;;;;;26.85;34.84;101600.59;5052991;27;96877;-74
2021/08/11 12:31:25;;;;;;;;;;;;;;;27.94;32.78;101601.28;5055217;27;97261;-73
2021/08/11 12:33:53;;;;;;;;;;;;;;;28.08;32.22;101594.53;5057723;27;99214;-74
2021/08/11 12:36:20;;;;;;;;;;;;;;;27.22;32.71;101601.72;5056561;27;98820;-74
2021/08/11 12:39:00;;;;;;;;;;;;;;;28.08;32.28;101599.97;5056111;27;97342;-74